sensor_id;sensor_type;location;lat;lon;timestamp;P1;durP1;ratioP1;P2;durP2;ratioP2
9436;SDS011;4757;59.334;18.034;2024-01-25T00:01:01;1.50;;;1.40;;
9436;SDS011;4757;59.334;18.034;2024-01-25T00:03:29;1.40;;;1.30;;
9436;SDS011;4757;59.334;18.034;2024-01-25T00:05:56;1.90;;;1.70;;
9436;SDS011;4757;59.334;18.034;2024-01-25T00:08:24;1.67;;;1.57;;
9436;SDS011;4757;59.334;18.034;2024-01-25T00:10:52;3.73;;;2.20;;
9436;SDS011;4757;59.334;18.034;2024-01-25T00:13:19;1.90;;;1.63;;
9436;SDS011;4757;59.334;18.034;2024-01-25T00:15:46;1.57;;;1.47;;
9436;SDS011;4757;59.334;18.034;2024-01-25T00:18:14;2.33;;;1.87;;
9436;SDS011;4757;59.334;18.034;2024-01-25T00:20:41;1.63;;;1.53;;
9436;SDS011;4757;59.334;18.034;2024-01-25T00:23:08;6.37;;;5.00;;
9436;SDS011;4757;59.334;18.034;2024-01-25T00:25:35;1.60;;;1.50;;
9436;SDS011;4757;59.334;18.034;2024-01-25T00:28:03;1.10;;;1.10;;
9436;SDS011;4757;59.334;18.034;2024-01-25T00:30:30;1.50;;;1.40;;
9436;SDS011;4757;59.334;18.034;2024-01-25T00:32:57;1.57;;;1.30;;
9436;SDS011;4757;59.334;18.034;2024-01-25T00:35:25;1.40;;;1.33;;
9436;SDS011;4757;59.334;18.034;2024-01-25T00:37:53;1.60;;;1.50;;
9436;SDS011;4757;59.334;18.034;2024-01-25T00:40:23;1.43;;;1.33;;
9436;SDS011;4757;59.334;18.034;2024-01-25T00:42:51;1.57;;;1.43;;
9436;SDS011;4757;59.334;18.034;2024-01-25T00:45:22;1.87;;;1.40;;
9436;SDS011;4757;59.334;18.034;2024-01-25T00:47:50;1.83;;;1.73;;
9436;SDS011;4757;59.334;18.034;2024-01-25T00:50:18;1.53;;;1.43;;
9436;SDS011;4757;59.334;18.034;2024-01-25T00:52:48;1.50;;;1.40;;
9436;SDS011;4757;59.334;18.034;2024-01-25T00:55:16;1.77;;;1.67;;
9436;SDS011;4757;59.334;18.034;2024-01-25T00:57:44;1.67;;;1.50;;
9436;SDS011;4757;59.334;18.034;2024-01-25T01:00:12;2.80;;;1.53;;
9436;SDS011;4757;59.334;18.034;2024-01-25T01:02:40;1.60;;;1.50;;
9436;SDS011;4757;59.334;18.034;2024-01-25T01:05:10;1.47;;;1.37;;
9436;SDS011;4757;59.334;18.034;2024-01-25T01:07:38;3.10;;;2.20;;
9436;SDS011;4757;59.334;18.034;2024-01-25T01:10:09;1.30;;;1.20;;
9436;SDS011;4757;59.334;18.034;2024-01-25T01:12:37;1.70;;;1.60;;
9436;SDS011;4757;59.334;18.034;2024-01-25T01:15:04;1.50;;;1.40;;
9436;SDS011;4757;59.334;18.034;2024-01-25T01:17:32;1.40;;;1.30;;
9436;SDS011;4757;59.334;18.034;2024-01-25T01:19:59;1.33;;;1.23;;
9436;SDS011;4757;59.334;18.034;2024-01-25T01:22:26;1.90;;;1.80;;
9436;SDS011;4757;59.334;18.034;2024-01-25T01:24:54;1.30;;;1.23;;
9436;SDS011;4757;59.334;18.034;2024-01-25T01:27:21;1.47;;;1.37;;
9436;SDS011;4757;59.334;18.034;2024-01-25T01:29:48;1.60;;;1.50;;
9436;SDS011;4757;59.334;18.034;2024-01-25T01:32:16;3.83;;;1.60;;
9436;SDS011;4757;59.334;18.034;2024-01-25T01:34:44;2.17;;;1.80;;
9436;SDS011;4757;59.334;18.034;2024-01-25T01:37:11;2.87;;;1.70;;
9436;SDS011;4757;59.334;18.034;2024-01-25T01:39:39;1.50;;;1.40;;
9436;SDS011;4757;59.334;18.034;2024-01-25T01:42:06;2.30;;;1.90;;
9436;SDS011;4757;59.334;18.034;2024-01-25T01:44:33;2.60;;;2.10;;
9436;SDS011;4757;59.334;18.034;2024-01-25T01:47:00;2.10;;;1.90;;
9436;SDS011;4757;59.334;18.034;2024-01-25T01:49:28;4.00;;;1.80;;
9436;SDS011;4757;59.334;18.034;2024-01-25T01:51:56;2.90;;;2.10;;
9436;SDS011;4757;59.334;18.034;2024-01-25T01:54:23;1.70;;;1.60;;
9436;SDS011;4757;59.334;18.034;2024-01-25T01:56:52;3.10;;;1.70;;
9436;SDS011;4757;59.334;18.034;2024-01-25T01:59:19;1.83;;;1.73;;
9436;SDS011;4757;59.334;18.034;2024-01-25T02:01:47;2.27;;;1.80;;
9436;SDS011;4757;59.334;18.034;2024-01-25T02:04:14;2.00;;;1.83;;
9436;SDS011;4757;59.334;18.034;2024-01-25T02:06:42;2.57;;;2.20;;
9436;SDS011;4757;59.334;18.034;2024-01-25T02:09:10;2.50;;;2.30;;
9436;SDS011;4757;59.334;18.034;2024-01-25T02:11:38;2.43;;;2.23;;
9436;SDS011;4757;59.334;18.034;2024-01-25T02:14:05;1.90;;;1.80;;
9436;SDS011;4757;59.334;18.034;2024-01-25T02:16:37;2.77;;;2.30;;
9436;SDS011;4757;59.334;18.034;2024-01-25T02:19:04;3.93;;;1.80;;
9436;SDS011;4757;59.334;18.034;2024-01-25T02:21:32;1.97;;;1.87;;
9436;SDS011;4757;59.334;18.034;2024-01-25T02:23:59;2.67;;;2.20;;
9436;SDS011;4757;59.334;18.034;2024-01-25T02:26:26;2.70;;;2.00;;
9436;SDS011;4757;59.334;18.034;2024-01-25T02:28:53;2.00;;;1.90;;
9436;SDS011;4757;59.334;18.034;2024-01-25T02:31:21;2.60;;;2.40;;
9436;SDS011;4757;59.334;18.034;2024-01-25T02:33:48;2.73;;;1.90;;
9436;SDS011;4757;59.334;18.034;2024-01-25T02:36:16;2.90;;;2.33;;
9436;SDS011;4757;59.334;18.034;2024-01-25T02:38:43;3.07;;;1.93;;
9436;SDS011;4757;59.334;18.034;2024-01-25T02:41:10;3.00;;;1.90;;
9436;SDS011;4757;59.334;18.034;2024-01-25T02:43:37;1.87;;;1.67;;
9436;SDS011;4757;59.334;18.034;2024-01-25T02:46:04;2.33;;;2.03;;
9436;SDS011;4757;59.334;18.034;2024-01-25T02:48:31;1.50;;;1.40;;
9436;SDS011;4757;59.334;18.034;2024-01-25T02:50:59;3.57;;;1.30;;
9436;SDS011;4757;59.334;18.034;2024-01-25T02:53:26;1.47;;;1.37;;
9436;SDS011;4757;59.334;18.034;2024-01-25T02:55:53;2.47;;;1.73;;
9436;SDS011;4757;59.334;18.034;2024-01-25T02:58:20;2.03;;;1.50;;
9436;SDS011;4757;59.334;18.034;2024-01-25T03:00:48;3.10;;;1.70;;
9436;SDS011;4757;59.334;18.034;2024-01-25T03:03:16;2.97;;;1.80;;
9436;SDS011;4757;59.334;18.034;2024-01-25T03:05:43;2.13;;;1.70;;
9436;SDS011;4757;59.334;18.034;2024-01-25T03:08:10;2.80;;;1.43;;
9436;SDS011;4757;59.334;18.034;2024-01-25T03:10:37;1.40;;;1.30;;
9436;SDS011;4757;59.334;18.034;2024-01-25T03:13:05;1.50;;;1.40;;
9436;SDS011;4757;59.334;18.034;2024-01-25T03:15:32;2.50;;;1.13;;
9436;SDS011;4757;59.334;18.034;2024-01-25T03:17:59;2.83;;;1.33;;
9436;SDS011;4757;59.334;18.034;2024-01-25T03:20:27;1.67;;;1.47;;
9436;SDS011;4757;59.334;18.034;2024-01-25T03:22:54;0.90;;;0.90;;
9436;SDS011;4757;59.334;18.034;2024-01-25T03:25:22;1.30;;;0.83;;
9436;SDS011;4757;59.334;18.034;2024-01-25T03:27:49;0.97;;;0.90;;
9436;SDS011;4757;59.334;18.034;2024-01-25T03:30:16;1.70;;;1.10;;
9436;SDS011;4757;59.334;18.034;2024-01-25T03:32:45;0.93;;;0.83;;
9436;SDS011;4757;59.334;18.034;2024-01-25T03:35:13;1.07;;;0.87;;
9436;SDS011;4757;59.334;18.034;2024-01-25T03:37:40;1.10;;;1.00;;
9436;SDS011;4757;59.334;18.034;2024-01-25T03:40:08;2.03;;;1.10;;
9436;SDS011;4757;59.334;18.034;2024-01-25T03:42:35;1.70;;;1.00;;
9436;SDS011;4757;59.334;18.034;2024-01-25T03:45:02;1.77;;;1.00;;
9436;SDS011;4757;59.334;18.034;2024-01-25T03:47:29;1.37;;;1.20;;
9436;SDS011;4757;59.334;18.034;2024-01-25T03:49:57;1.23;;;0.87;;
9436;SDS011;4757;59.334;18.034;2024-01-25T03:52:24;1.97;;;1.07;;
9436;SDS011;4757;59.334;18.034;2024-01-25T03:54:51;2.43;;;1.13;;
9436;SDS011;4757;59.334;18.034;2024-01-25T03:57:18;1.00;;;0.87;;
9436;SDS011;4757;59.334;18.034;2024-01-25T03:59:46;1.37;;;0.90;;
9436;SDS011;4757;59.334;18.034;2024-01-25T04:02:13;1.73;;;1.20;;
9436;SDS011;4757;59.334;18.034;2024-01-25T04:04:40;1.27;;;1.13;;
9436;SDS011;4757;59.334;18.034;2024-01-25T04:07:07;1.97;;;1.10;;
9436;SDS011;4757;59.334;18.034;2024-01-25T04:09:37;1.30;;;1.20;;
9436;SDS011;4757;59.334;18.034;2024-01-25T04:12:05;2.07;;;1.53;;
9436;SDS011;4757;59.334;18.034;2024-01-25T04:14:32;1.33;;;1.30;;
9436;SDS011;4757;59.334;18.034;2024-01-25T04:16:59;1.90;;;1.40;;
9436;SDS011;4757;59.334;18.034;2024-01-25T04:19:26;3.23;;;1.80;;
9436;SDS011;4757;59.334;18.034;2024-01-25T04:21:54;1.50;;;1.40;;
9436;SDS011;4757;59.334;18.034;2024-01-25T04:24:21;1.53;;;1.20;;
9436;SDS011;4757;59.334;18.034;2024-01-25T04:26:48;1.30;;;1.20;;
9436;SDS011;4757;59.334;18.034;2024-01-25T04:29:15;1.73;;;1.63;;
9436;SDS011;4757;59.334;18.034;2024-01-25T04:31:43;1.70;;;1.60;;
9436;SDS011;4757;59.334;18.034;2024-01-25T04:34:14;1.60;;;1.50;;
9436;SDS011;4757;59.334;18.034;2024-01-25T04:36:42;1.77;;;1.63;;
9436;SDS011;4757;59.334;18.034;2024-01-25T04:39:10;6.27;;;2.13;;
9436;SDS011;4757;59.334;18.034;2024-01-25T04:41:37;3.33;;;1.50;;
9436;SDS011;4757;59.334;18.034;2024-01-25T04:44:04;4.13;;;1.43;;
9436;SDS011;4757;59.334;18.034;2024-01-25T04:46:31;3.57;;;1.83;;
9436;SDS011;4757;59.334;18.034;2024-01-25T04:49:03;4.30;;;1.97;;
9436;SDS011;4757;59.334;18.034;2024-01-25T04:51:31;2.60;;;1.73;;
9436;SDS011;4757;59.334;18.034;2024-01-25T04:53:58;4.30;;;1.80;;
9436;SDS011;4757;59.334;18.034;2024-01-25T04:56:26;1.90;;;1.70;;
9436;SDS011;4757;59.334;18.034;2024-01-25T04:58:54;2.67;;;1.70;;
9436;SDS011;4757;59.334;18.034;2024-01-25T05:01:21;3.50;;;1.50;;
9436;SDS011;4757;59.334;18.034;2024-01-25T05:03:48;3.83;;;1.83;;
9436;SDS011;4757;59.334;18.034;2024-01-25T05:06:16;2.90;;;2.30;;
9436;SDS011;4757;59.334;18.034;2024-01-25T05:08:43;2.40;;;1.77;;
9436;SDS011;4757;59.334;18.034;2024-01-25T05:11:10;2.50;;;1.70;;
9436;SDS011;4757;59.334;18.034;2024-01-25T05:13:37;1.90;;;1.70;;
9436;SDS011;4757;59.334;18.034;2024-01-25T05:16:04;3.13;;;1.40;;
9436;SDS011;4757;59.334;18.034;2024-01-25T05:18:32;1.87;;;1.60;;
9436;SDS011;4757;59.334;18.034;2024-01-25T05:20:59;3.10;;;1.60;;
9436;SDS011;4757;59.334;18.034;2024-01-25T05:23:27;3.00;;;1.83;;
9436;SDS011;4757;59.334;18.034;2024-01-25T05:25:54;2.50;;;1.90;;
9436;SDS011;4757;59.334;18.034;2024-01-25T05:28:21;3.57;;;1.67;;
9436;SDS011;4757;59.334;18.034;2024-01-25T05:30:48;2.93;;;2.00;;
9436;SDS011;4757;59.334;18.034;2024-01-25T05:33:16;3.03;;;2.37;;
9436;SDS011;4757;59.334;18.034;2024-01-25T05:35:43;2.60;;;1.60;;
9436;SDS011;4757;59.334;18.034;2024-01-25T05:38:10;1.77;;;1.67;;
9436;SDS011;4757;59.334;18.034;2024-01-25T05:40:37;3.73;;;1.80;;
9436;SDS011;4757;59.334;18.034;2024-01-25T05:43:05;1.93;;;1.63;;
9436;SDS011;4757;59.334;18.034;2024-01-25T05:45:32;2.37;;;2.07;;
9436;SDS011;4757;59.334;18.034;2024-01-25T05:48:00;2.67;;;2.27;;
9436;SDS011;4757;59.334;18.034;2024-01-25T05:50:27;3.00;;;2.33;;
9436;SDS011;4757;59.334;18.034;2024-01-25T05:52:55;4.33;;;2.00;;
9436;SDS011;4757;59.334;18.034;2024-01-25T05:55:22;5.17;;;1.70;;
9436;SDS011;4757;59.334;18.034;2024-01-25T05:57:49;2.00;;;1.80;;
9436;SDS011;4757;59.334;18.034;2024-01-25T06:00:16;2.43;;;1.87;;
9436;SDS011;4757;59.334;18.034;2024-01-25T06:02:47;2.97;;;1.57;;
9436;SDS011;4757;59.334;18.034;2024-01-25T06:05:14;3.20;;;2.10;;
9436;SDS011;4757;59.334;18.034;2024-01-25T06:07:42;3.10;;;2.40;;
9436;SDS011;4757;59.334;18.034;2024-01-25T06:10:10;1.83;;;1.60;;
9436;SDS011;4757;59.334;18.034;2024-01-25T06:12:37;1.60;;;1.50;;
9436;SDS011;4757;59.334;18.034;2024-01-25T06:15:05;2.30;;;2.10;;
9436;SDS011;4757;59.334;18.034;2024-01-25T06:17:33;3.27;;;2.60;;
9436;SDS011;4757;59.334;18.034;2024-01-25T06:20:00;2.47;;;1.87;;
9436;SDS011;4757;59.334;18.034;2024-01-25T06:22:29;1.90;;;1.57;;
9436;SDS011;4757;59.334;18.034;2024-01-25T06:24:56;1.90;;;1.70;;
9436;SDS011;4757;59.334;18.034;2024-01-25T06:27:23;2.47;;;1.57;;
9436;SDS011;4757;59.334;18.034;2024-01-25T06:29:50;1.77;;;1.67;;
9436;SDS011;4757;59.334;18.034;2024-01-25T06:32:18;1.93;;;1.80;;
9436;SDS011;4757;59.334;18.034;2024-01-25T06:34:52;1.67;;;1.57;;
9436;SDS011;4757;59.334;18.034;2024-01-25T06:37:22;2.30;;;1.90;;
9436;SDS011;4757;59.334;18.034;2024-01-25T06:39:49;1.83;;;1.73;;
9436;SDS011;4757;59.334;18.034;2024-01-25T06:42:17;2.73;;;1.90;;
9436;SDS011;4757;59.334;18.034;2024-01-25T06:44:44;2.37;;;2.17;;
9436;SDS011;4757;59.334;18.034;2024-01-25T06:47:11;2.30;;;1.93;;
9436;SDS011;4757;59.334;18.034;2024-01-25T06:49:39;2.57;;;2.17;;
9436;SDS011;4757;59.334;18.034;2024-01-25T06:52:06;3.30;;;2.00;;
9436;SDS011;4757;59.334;18.034;2024-01-25T06:54:33;2.10;;;1.67;;
9436;SDS011;4757;59.334;18.034;2024-01-25T06:57:01;3.20;;;2.07;;
9436;SDS011;4757;59.334;18.034;2024-01-25T06:59:29;2.37;;;1.80;;
9436;SDS011;4757;59.334;18.034;2024-01-25T07:01:56;2.27;;;1.70;;
9436;SDS011;4757;59.334;18.034;2024-01-25T07:04:25;2.53;;;2.23;;
9436;SDS011;4757;59.334;18.034;2024-01-25T07:06:52;4.90;;;1.90;;
9436;SDS011;4757;59.334;18.034;2024-01-25T07:09:20;4.63;;;1.73;;
9436;SDS011;4757;59.334;18.034;2024-01-25T07:11:47;1.57;;;1.30;;
9436;SDS011;4757;59.334;18.034;2024-01-25T07:14:14;2.53;;;2.10;;
9436;SDS011;4757;59.334;18.034;2024-01-25T07:16:41;4.03;;;1.50;;
9436;SDS011;4757;59.334;18.034;2024-01-25T07:19:09;1.90;;;1.60;;
9436;SDS011;4757;59.334;18.034;2024-01-25T07:21:37;2.53;;;1.80;;
9436;SDS011;4757;59.334;18.034;2024-01-25T07:24:06;3.03;;;1.60;;
9436;SDS011;4757;59.334;18.034;2024-01-25T07:26:34;2.30;;;2.00;;
9436;SDS011;4757;59.334;18.034;2024-01-25T07:29:03;2.77;;;1.77;;
9436;SDS011;4757;59.334;18.034;2024-01-25T07:31:30;1.93;;;1.20;;
9436;SDS011;4757;59.334;18.034;2024-01-25T07:33:57;1.60;;;1.10;;
9436;SDS011;4757;59.334;18.034;2024-01-25T07:36:25;2.40;;;1.20;;
9436;SDS011;4757;59.334;18.034;2024-01-25T07:38:52;0.97;;;0.90;;
9436;SDS011;4757;59.334;18.034;2024-01-25T07:41:19;2.17;;;1.07;;
9436;SDS011;4757;59.334;18.034;2024-01-25T07:43:46;1.10;;;1.00;;
9436;SDS011;4757;59.334;18.034;2024-01-25T07:46:13;2.60;;;0.90;;
9436;SDS011;4757;59.334;18.034;2024-01-25T07:48:42;1.50;;;1.00;;
9436;SDS011;4757;59.334;18.034;2024-01-25T07:51:10;1.30;;;0.90;;
9436;SDS011;4757;59.334;18.034;2024-01-25T07:53:39;1.10;;;1.00;;
9436;SDS011;4757;59.334;18.034;2024-01-25T07:56:07;1.23;;;1.10;;
9436;SDS011;4757;59.334;18.034;2024-01-25T07:58:35;3.07;;;1.10;;
9436;SDS011;4757;59.334;18.034;2024-01-25T08:01:05;1.10;;;1.00;;
9436;SDS011;4757;59.334;18.034;2024-01-25T08:03:33;2.73;;;1.20;;
9436;SDS011;4757;59.334;18.034;2024-01-25T08:06:01;1.90;;;1.40;;
9436;SDS011;4757;59.334;18.034;2024-01-25T08:08:29;1.77;;;1.40;;
9436;SDS011;4757;59.334;18.034;2024-01-25T08:10:57;1.43;;;1.20;;
9436;SDS011;4757;59.334;18.034;2024-01-25T08:13:24;2.73;;;1.20;;
9436;SDS011;4757;59.334;18.034;2024-01-25T08:15:58;0.97;;;0.97;;
9436;SDS011;4757;59.334;18.034;2024-01-25T08:18:26;4.20;;;1.10;;
9436;SDS011;4757;59.334;18.034;2024-01-25T08:20:56;1.80;;;1.37;;
9436;SDS011;4757;59.334;18.034;2024-01-25T08:23:24;1.53;;;1.27;;
9436;SDS011;4757;59.334;18.034;2024-01-25T08:25:51;2.33;;;1.50;;
9436;SDS011;4757;59.334;18.034;2024-01-25T08:28:18;1.67;;;1.47;;
9436;SDS011;4757;59.334;18.034;2024-01-25T08:30:46;3.80;;;1.73;;
9436;SDS011;4757;59.334;18.034;2024-01-25T08:33:14;1.10;;;1.00;;
9436;SDS011;4757;59.334;18.034;2024-01-25T08:35:41;1.47;;;1.00;;
9436;SDS011;4757;59.334;18.034;2024-01-25T08:38:09;2.53;;;1.50;;
9436;SDS011;4757;59.334;18.034;2024-01-25T08:40:36;1.63;;;1.20;;
9436;SDS011;4757;59.334;18.034;2024-01-25T08:43:03;2.07;;;1.13;;
9436;SDS011;4757;59.334;18.034;2024-01-25T08:45:31;1.30;;;1.10;;
9436;SDS011;4757;59.334;18.034;2024-01-25T08:47:59;4.13;;;1.27;;
9436;SDS011;4757;59.334;18.034;2024-01-25T08:50:27;1.57;;;1.47;;
9436;SDS011;4757;59.334;18.034;2024-01-25T08:52:54;1.73;;;1.30;;
9436;SDS011;4757;59.334;18.034;2024-01-25T08:55:22;1.97;;;1.53;;
9436;SDS011;4757;59.334;18.034;2024-01-25T08:57:49;1.93;;;1.20;;
9436;SDS011;4757;59.334;18.034;2024-01-25T09:00:17;2.17;;;1.80;;
9436;SDS011;4757;59.334;18.034;2024-01-25T09:02:45;1.80;;;1.60;;
9436;SDS011;4757;59.334;18.034;2024-01-25T09:05:12;2.07;;;1.57;;
9436;SDS011;4757;59.334;18.034;2024-01-25T09:07:40;2.10;;;1.50;;
9436;SDS011;4757;59.334;18.034;2024-01-25T09:10:08;2.20;;;1.70;;
9436;SDS011;4757;59.334;18.034;2024-01-25T09:12:37;2.27;;;1.70;;
9436;SDS011;4757;59.334;18.034;2024-01-25T09:15:04;3.60;;;1.70;;
9436;SDS011;4757;59.334;18.034;2024-01-25T09:17:32;2.17;;;1.60;;
9436;SDS011;4757;59.334;18.034;2024-01-25T09:19:59;2.40;;;2.20;;
9436;SDS011;4757;59.334;18.034;2024-01-25T09:22:27;2.87;;;2.00;;
9436;SDS011;4757;59.334;18.034;2024-01-25T09:24:55;5.50;;;2.33;;
9436;SDS011;4757;59.334;18.034;2024-01-25T09:27:22;2.60;;;1.73;;
9436;SDS011;4757;59.334;18.034;2024-01-25T09:29:49;2.43;;;2.23;;
9436;SDS011;4757;59.334;18.034;2024-01-25T09:32:17;2.40;;;1.77;;
9436;SDS011;4757;59.334;18.034;2024-01-25T09:34:47;4.47;;;2.23;;
9436;SDS011;4757;59.334;18.034;2024-01-25T09:37:15;2.67;;;2.03;;
9436;SDS011;4757;59.334;18.034;2024-01-25T09:39:44;5.07;;;2.57;;
9436;SDS011;4757;59.334;18.034;2024-01-25T09:42:12;2.50;;;2.30;;
9436;SDS011;4757;59.334;18.034;2024-01-25T09:44:39;4.30;;;2.63;;
9436;SDS011;4757;59.334;18.034;2024-01-25T09:47:07;2.40;;;2.20;;
9436;SDS011;4757;59.334;18.034;2024-01-25T09:49:36;3.07;;;2.60;;
9436;SDS011;4757;59.334;18.034;2024-01-25T09:52:04;2.60;;;2.37;;
9436;SDS011;4757;59.334;18.034;2024-01-25T09:54:35;3.10;;;2.80;;
9436;SDS011;4757;59.334;18.034;2024-01-25T09:57:03;3.30;;;2.97;;
9436;SDS011;4757;59.334;18.034;2024-01-25T09:59:37;4.37;;;3.13;;
9436;SDS011;4757;59.334;18.034;2024-01-25T10:02:04;3.97;;;2.50;;
9436;SDS011;4757;59.334;18.034;2024-01-25T10:04:32;4.50;;;3.20;;
9436;SDS011;4757;59.334;18.034;2024-01-25T10:06:59;3.73;;;3.13;;
9436;SDS011;4757;59.334;18.034;2024-01-25T10:09:26;3.27;;;3.00;;
9436;SDS011;4757;59.334;18.034;2024-01-25T10:11:54;3.73;;;3.33;;
9436;SDS011;4757;59.334;18.034;2024-01-25T10:14:41;5.87;;;3.40;;
9436;SDS011;4757;59.334;18.034;2024-01-25T10:17:08;5.10;;;3.40;;
9436;SDS011;4757;59.334;18.034;2024-01-25T10:19:35;3.50;;;2.83;;
9436;SDS011;4757;59.334;18.034;2024-01-25T10:22:05;4.13;;;2.83;;
9436;SDS011;4757;59.334;18.034;2024-01-25T10:24:36;5.07;;;3.60;;
9436;SDS011;4757;59.334;18.034;2024-01-25T10:27:03;5.47;;;3.30;;
9436;SDS011;4757;59.334;18.034;2024-01-25T10:29:31;4.27;;;3.57;;
9436;SDS011;4757;59.334;18.034;2024-01-25T10:31:58;3.37;;;3.07;;
9436;SDS011;4757;59.334;18.034;2024-01-25T10:34:25;3.50;;;3.20;;
9436;SDS011;4757;59.334;18.034;2024-01-25T10:36:55;3.57;;;2.60;;
9436;SDS011;4757;59.334;18.034;2024-01-25T10:39:24;4.57;;;3.27;;
9436;SDS011;4757;59.334;18.034;2024-01-25T10:41:51;4.90;;;3.73;;
9436;SDS011;4757;59.334;18.034;2024-01-25T10:44:19;4.07;;;3.67;;
9436;SDS011;4757;59.334;18.034;2024-01-25T10:46:47;5.17;;;4.27;;
9436;SDS011;4757;59.334;18.034;2024-01-25T10:49:16;4.43;;;4.03;;
9436;SDS011;4757;59.334;18.034;2024-01-25T10:51:45;4.73;;;4.07;;
9436;SDS011;4757;59.334;18.034;2024-01-25T10:54:13;4.57;;;3.50;;
9436;SDS011;4757;59.334;18.034;2024-01-25T10:56:41;5.17;;;3.93;;
9436;SDS011;4757;59.334;18.034;2024-01-25T10:59:10;4.53;;;4.13;;
9436;SDS011;4757;59.334;18.034;2024-01-25T11:01:37;7.83;;;4.37;;
9436;SDS011;4757;59.334;18.034;2024-01-25T11:04:15;5.93;;;3.70;;
9436;SDS011;4757;59.334;18.034;2024-01-25T11:06:44;4.67;;;4.07;;
9436;SDS011;4757;59.334;18.034;2024-01-25T11:09:22;5.03;;;3.90;;
9436;SDS011;4757;59.334;18.034;2024-01-25T11:12:11;4.67;;;4.23;;
9436;SDS011;4757;59.334;18.034;2024-01-25T11:14:55;5.90;;;4.50;;
9436;SDS011;4757;59.334;18.034;2024-01-25T11:17:23;3.93;;;3.47;;
9436;SDS011;4757;59.334;18.034;2024-01-25T11:19:50;5.63;;;3.47;;
9436;SDS011;4757;59.334;18.034;2024-01-25T11:22:19;4.60;;;3.37;;
9436;SDS011;4757;59.334;18.034;2024-01-25T11:24:46;5.00;;;3.57;;
9436;SDS011;4757;59.334;18.034;2024-01-25T11:27:16;8.70;;;6.83;;
9436;SDS011;4757;59.334;18.034;2024-01-25T11:29:43;5.60;;;4.07;;
9436;SDS011;4757;59.334;18.034;2024-01-25T11:32:11;5.63;;;4.20;;
9436;SDS011;4757;59.334;18.034;2024-01-25T11:34:39;5.60;;;3.77;;
9436;SDS011;4757;59.334;18.034;2024-01-25T11:37:06;3.57;;;2.70;;
9436;SDS011;4757;59.334;18.034;2024-01-25T11:39:33;3.70;;;3.00;;
9436;SDS011;4757;59.334;18.034;2024-01-25T11:42:01;6.87;;;3.63;;
9436;SDS011;4757;59.334;18.034;2024-01-25T11:44:28;2.57;;;2.37;;
9436;SDS011;4757;59.334;18.034;2024-01-25T11:46:55;3.10;;;2.10;;
9436;SDS011;4757;59.334;18.034;2024-01-25T11:49:24;3.80;;;3.10;;
9436;SDS011;4757;59.334;18.034;2024-01-25T11:51:52;3.43;;;2.17;;
9436;SDS011;4757;59.334;18.034;2024-01-25T11:54:19;3.07;;;2.53;;
9436;SDS011;4757;59.334;18.034;2024-01-25T11:56:47;4.07;;;2.23;;
9436;SDS011;4757;59.334;18.034;2024-01-25T11:59:14;3.10;;;2.30;;
9436;SDS011;4757;59.334;18.034;2024-01-25T12:01:42;3.47;;;2.63;;
9436;SDS011;4757;59.334;18.034;2024-01-25T12:04:09;3.93;;;2.53;;
9436;SDS011;4757;59.334;18.034;2024-01-25T12:06:37;4.67;;;3.53;;
9436;SDS011;4757;59.334;18.034;2024-01-25T12:09:08;3.83;;;2.33;;
9436;SDS011;4757;59.334;18.034;2024-01-25T12:11:37;3.87;;;3.50;;
9436;SDS011;4757;59.334;18.034;2024-01-25T12:14:07;2.33;;;2.13;;
9436;SDS011;4757;59.334;18.034;2024-01-25T12:16:35;3.17;;;1.90;;
9436;SDS011;4757;59.334;18.034;2024-01-25T12:19:04;3.27;;;1.90;;
9436;SDS011;4757;59.334;18.034;2024-01-25T12:21:33;6.80;;;2.70;;
9436;SDS011;4757;59.334;18.034;2024-01-25T12:24:01;4.43;;;2.30;;
9436;SDS011;4757;59.334;18.034;2024-01-25T12:26:33;11.90;;;7.27;;
9436;SDS011;4757;59.334;18.034;2024-01-25T12:29:03;6.03;;;3.17;;
9436;SDS011;4757;59.334;18.034;2024-01-25T12:31:31;4.53;;;1.83;;
9436;SDS011;4757;59.334;18.034;2024-01-25T12:33:59;2.20;;;2.00;;
9436;SDS011;4757;59.334;18.034;2024-01-25T12:36:28;1.70;;;1.60;;
9436;SDS011;4757;59.334;18.034;2024-01-25T12:38:55;2.03;;;1.63;;
9436;SDS011;4757;59.334;18.034;2024-01-25T12:41:22;3.03;;;1.20;;
9436;SDS011;4757;59.334;18.034;2024-01-25T12:43:50;2.27;;;1.63;;
9436;SDS011;4757;59.334;18.034;2024-01-25T12:46:19;1.23;;;1.13;;
9436;SDS011;4757;59.334;18.034;2024-01-25T12:48:54;1.50;;;1.37;;
9436;SDS011;4757;59.334;18.034;2024-01-25T12:51:23;3.20;;;1.70;;
9436;SDS011;4757;59.334;18.034;2024-01-25T12:53:51;1.20;;;1.10;;
9436;SDS011;4757;59.334;18.034;2024-01-25T12:56:18;3.37;;;1.50;;
9436;SDS011;4757;59.334;18.034;2024-01-25T12:58:45;0.93;;;0.90;;
9436;SDS011;4757;59.334;18.034;2024-01-25T13:01:12;1.97;;;1.10;;
9436;SDS011;4757;59.334;18.034;2024-01-25T13:03:42;4.90;;;1.20;;
9436;SDS011;4757;59.334;18.034;2024-01-25T13:06:12;1.77;;;1.20;;
9436;SDS011;4757;59.334;18.034;2024-01-25T13:08:39;0.83;;;0.83;;
9436;SDS011;4757;59.334;18.034;2024-01-25T13:11:06;0.83;;;0.83;;
9436;SDS011;4757;59.334;18.034;2024-01-25T13:13:33;2.43;;;1.20;;
9436;SDS011;4757;59.334;18.034;2024-01-25T13:16:00;1.10;;;1.00;;
9436;SDS011;4757;59.334;18.034;2024-01-25T13:18:28;1.63;;;0.90;;
9436;SDS011;4757;59.334;18.034;2024-01-25T13:20:55;2.90;;;1.60;;
9436;SDS011;4757;59.334;18.034;2024-01-25T13:23:22;0.90;;;0.90;;
9436;SDS011;4757;59.334;18.034;2024-01-25T13:25:49;2.83;;;1.00;;
9436;SDS011;4757;59.334;18.034;2024-01-25T13:28:17;1.50;;;1.07;;
9436;SDS011;4757;59.334;18.034;2024-01-25T13:30:48;1.07;;;0.83;;
9436;SDS011;4757;59.334;18.034;2024-01-25T13:33:15;1.03;;;1.03;;
9436;SDS011;4757;59.334;18.034;2024-01-25T13:35:42;2.50;;;0.90;;
9436;SDS011;4757;59.334;18.034;2024-01-25T13:38:10;1.00;;;0.70;;
9436;SDS011;4757;59.334;18.034;2024-01-25T13:40:41;2.33;;;0.80;;
9436;SDS011;4757;59.334;18.034;2024-01-25T13:43:08;1.20;;;0.97;;
9436;SDS011;4757;59.334;18.034;2024-01-25T13:45:36;1.07;;;0.70;;
9436;SDS011;4757;59.334;18.034;2024-01-25T13:48:03;1.13;;;0.90;;
9436;SDS011;4757;59.334;18.034;2024-01-25T13:50:30;4.37;;;0.87;;
9436;SDS011;4757;59.334;18.034;2024-01-25T13:52:57;0.90;;;0.90;;
9436;SDS011;4757;59.334;18.034;2024-01-25T13:55:25;0.97;;;0.80;;
9436;SDS011;4757;59.334;18.034;2024-01-25T13:57:52;5.20;;;1.13;;
9436;SDS011;4757;59.334;18.034;2024-01-25T14:00:19;2.50;;;0.93;;
9436;SDS011;4757;59.334;18.034;2024-01-25T14:02:47;0.83;;;0.83;;
9436;SDS011;4757;59.334;18.034;2024-01-25T14:05:14;1.70;;;0.83;;
9436;SDS011;4757;59.334;18.034;2024-01-25T14:07:42;1.10;;;1.00;;
9436;SDS011;4757;59.334;18.034;2024-01-25T14:10:09;1.87;;;1.07;;
9436;SDS011;4757;59.334;18.034;2024-01-25T14:12:36;2.33;;;1.37;;
9436;SDS011;4757;59.334;18.034;2024-01-25T14:15:04;1.20;;;1.10;;
9436;SDS011;4757;59.334;18.034;2024-01-25T14:17:31;0.90;;;0.90;;
9436;SDS011;4757;59.334;18.034;2024-01-25T14:19:59;2.07;;;1.87;;
9436;SDS011;4757;59.334;18.034;2024-01-25T14:22:28;2.20;;;1.13;;
9436;SDS011;4757;59.334;18.034;2024-01-25T14:25:01;1.07;;;0.90;;
9436;SDS011;4757;59.334;18.034;2024-01-25T14:27:29;1.73;;;1.33;;
9436;SDS011;4757;59.334;18.034;2024-01-25T14:29:56;1.97;;;1.13;;
9436;SDS011;4757;59.334;18.034;2024-01-25T14:32:24;2.40;;;1.33;;
9436;SDS011;4757;59.334;18.034;2024-01-25T14:34:51;1.27;;;1.10;;
9436;SDS011;4757;59.334;18.034;2024-01-25T14:37:19;0.83;;;0.83;;
9436;SDS011;4757;59.334;18.034;2024-01-25T14:39:46;4.00;;;1.20;;
9436;SDS011;4757;59.334;18.034;2024-01-25T14:42:33;2.20;;;1.07;;
9436;SDS011;4757;59.334;18.034;2024-01-25T14:45:00;1.93;;;1.67;;
9436;SDS011;4757;59.334;18.034;2024-01-25T14:47:27;1.23;;;1.10;;
9436;SDS011;4757;59.334;18.034;2024-01-25T14:49:55;1.20;;;1.03;;
9436;SDS011;4757;59.334;18.034;2024-01-25T14:52:22;4.53;;;2.03;;
9436;SDS011;4757;59.334;18.034;2024-01-25T14:54:49;1.43;;;1.33;;
9436;SDS011;4757;59.334;18.034;2024-01-25T14:57:17;2.23;;;1.40;;
9436;SDS011;4757;59.334;18.034;2024-01-25T14:59:44;2.00;;;1.10;;
9436;SDS011;4757;59.334;18.034;2024-01-25T15:02:12;1.17;;;1.07;;
9436;SDS011;4757;59.334;18.034;2024-01-25T15:04:40;3.00;;;1.63;;